sensor_id;sensor_type;location;lat;lon;timestamp;pressure;altitude;pressure_sealevel;temperature;humidity
35655;BME280;21773;50.010;19.972;2022-09-12T00:02:37;98542.78;;;21.34;48.90
35655;BME280;21773;50.010;19.972;2022-09-12T00:05:41;98542.25;;;21.32;48.91
35655;BME280;21773;50.010;19.972;2022-09-12T00:08:46;98539.81;;;21.31;49.27
35655;BME280;21773;50.010;19.972;2022-09-12T00:11:50;98540.13;;;21.29;48.89
35655;BME280;21773;50.010;19.972;2022-09-12T00:14:53;98538.19;;;21.30;48.96
35655;BME280;21773;50.010;19.972;2022-09-12T00:17:56;98527.81;;;21.27;49.41
35655;BME280;21773;50.010;19.972;2022-09-12T00:21:02;98536.84;;;21.27;49.13
35655;BME280;21773;50.010;19.972;2022-09-12T00:24:08;98532.81;;;21.25;49.22
35655;BME280;21773;50.010;19.972;2022-09-12T00:27:12;98538.56;;;21.23;49.19
35655;BME280;21773;50.010;19.972;2022-09-12T00:30:15;98542.44;;;21.22;49.29
35655;BME280;21773;50.010;19.972;2022-09-12T00:33:19;98532.88;;;21.20;49.30
35655;BME280;21773;50.010;19.972;2022-09-12T00:36:23;98539.78;;;21.17;49.48
35655;BME280;21773;50.010;19.972;2022-09-12T00:39:28;98541.41;;;21.18;49.49
35655;BME280;21773;50.010;19.972;2022-09-12T00:42:32;98539.47;;;21.18;50.21
35655;BME280;21773;50.010;19.972;2022-09-12T00:45:35;98532.88;;;21.20;49.84
35655;BME280;21773;50.010;19.972;2022-09-12T00:48:49;98540.28;;;21.19;50.44
35655;BME280;21773;50.010;19.972;2022-09-12T00:51:57;98541.13;;;21.20;49.93
35655;BME280;21773;50.010;19.972;2022-09-12T00:55:07;98534.81;;;21.19;50.23
35655;BME280;21773;50.010;19.972;2022-09-12T00:58:16;98534.00;;;21.18;49.93
35655;BME280;21773;50.010;19.972;2022-09-12T01:01:23;98534.28;;;21.17;49.75
35655;BME280;21773;50.010;19.972;2022-09-12T01:04:35;98547.50;;;21.15;49.86
35655;BME280;21773;50.010;19.972;2022-09-12T01:07:40;98547.78;;;21.13;49.75
35655;BME280;21773;50.010;19.972;2022-09-12T01:10:47;98545.28;;;21.12;50.03
35655;BME280;21773;50.010;19.972;2022-09-12T01:13:51;98550.28;;;21.10;50.29
35655;BME280;21773;50.010;19.972;2022-09-12T01:16:54;98547.84;;;21.08;50.28
35655;BME280;21773;50.010;19.972;2022-09-12T01:20:22;98548.13;;;21.07;50.03
35655;BME280;21773;50.010;19.972;2022-09-12T01:27:18;98544.88;;;21.05;50.13
35655;BME280;21773;50.010;19.972;2022-09-12T01:30:45;98547.09;;;21.03;49.83
35655;BME280;21773;50.010;19.972;2022-09-12T01:33:57;98544.63;;;21.01;49.81
35655;BME280;21773;50.010;19.972;2022-09-12T01:37:12;98547.09;;;21.03;50.30
35655;BME280;21773;50.010;19.972;2022-09-12T01:40:22;98543.84;;;21.01;49.67
35655;BME280;21773;50.010;19.972;2022-09-12T01:43:33;98544.13;;;20.99;49.96
35655;BME280;21773;50.010;19.972;2022-09-12T01:46:43;98537.31;;;20.97;50.14
35655;BME280;21773;50.010;19.972;2022-09-12T01:49:54;98538.44;;;20.96;50.07
35655;BME280;21773;50.010;19.972;2022-09-12T01:53:04;98545.53;;;20.97;49.85
35655;BME280;21773;50.010;19.972;2022-09-12T01:56:13;98556.50;;;20.97;49.79
35655;BME280;21773;50.010;19.972;2022-09-12T01:59:24;98553.47;;;20.98;49.69
35655;BME280;21773;50.010;19.972;2022-09-12T02:02:34;98551.00;;;20.97;49.95
35655;BME280;21773;50.010;19.972;2022-09-12T02:05:43;98558.66;;;21.00;49.93
35655;BME280;21773;50.010;19.972;2022-09-12T02:08:51;98562.50;;;20.99;49.70
35655;BME280;21773;50.010;19.972;2022-09-12T02:11:58;98565.25;;;20.99;49.57
35655;BME280;21773;50.010;19.972;2022-09-12T02:15:07;98569.09;;;20.98;49.86
35655;BME280;21773;50.010;19.972;2022-09-12T02:18:14;98557.31;;;20.97;49.91
35655;BME280;21773;50.010;19.972;2022-09-12T02:21:21;98531.19;;;20.86;49.71
35655;BME280;21773;50.010;19.972;2022-09-12T02:24:39;98550.81;;;20.93;49.72
35655;BME280;21773;50.010;19.972;2022-09-12T02:27:47;98538.88;;;20.84;49.66
35655;BME280;21773;50.010;19.972;2022-09-12T02:30:58;98554.66;;;20.92;49.53
35655;BME280;21773;50.010;19.972;2022-09-12T02:34:21;98546.44;;;20.92;49.40
35655;BME280;21773;50.010;19.972;2022-09-12T02:37:37;98557.38;;;20.92;49.14
35655;BME280;21773;50.010;19.972;2022-09-12T02:40:44;98541.84;;;20.88;49.22
35655;BME280;21773;50.010;19.972;2022-09-12T02:43:49;98539.19;;;20.83;49.01
35655;BME280;21773;50.010;19.972;2022-09-12T02:46:56;98541.41;;;20.81;49.37
35655;BME280;21773;50.010;19.972;2022-09-12T02:50:05;98534.97;;;20.71;49.38
35655;BME280;21773;50.010;19.972;2022-09-12T02:53:09;98539.84;;;20.74;49.38
35655;BME280;21773;50.010;19.972;2022-09-12T02:56:17;98541.78;;;20.74;49.12
35655;BME280;21773;50.010;19.972;2022-09-12T02:59:23;98536.59;;;20.72;49.10
35655;BME280;21773;50.010;19.972;2022-09-12T03:02:33;98539.94;;;20.69;48.86
35655;BME280;21773;50.010;19.972;2022-09-12T03:05:52;98547.59;;;20.67;49.36
35655;BME280;21773;50.010;19.972;2022-09-12T03:09:02;98537.25;;;20.64;49.47
35655;BME280;21773;50.010;19.972;2022-09-12T03:12:17;98548.28;;;20.59;49.42
35655;BME280;21773;50.010;19.972;2022-09-12T03:15:40;98543.63;;;20.60;49.33
35655;BME280;21773;50.010;19.972;2022-09-12T03:18:51;98551.63;;;20.56;49.27
35655;BME280;21773;50.010;19.972;2022-09-12T03:22:09;98557.09;;;20.56;49.19
35655;BME280;21773;50.010;19.972;2022-09-12T03:25:19;98552.19;;;20.53;49.58
35655;BME280;21773;50.010;19.972;2022-09-12T03:28:23;98556.06;;;20.52;49.60
35655;BME280;21773;50.010;19.972;2022-09-12T03:31:27;98556.63;;;20.49;49.29
35655;BME280;21773;50.010;19.972;2022-09-12T03:34:30;98553.38;;;20.47;49.64
35655;BME280;21773;50.010;19.972;2022-09-12T03:37:34;98558.34;;;20.45;49.34
35655;BME280;21773;50.010;19.972;2022-09-12T03:40:38;98559.75;;;20.43;49.32
35655;BME280;21773;50.010;19.972;2022-09-12T03:43:42;98556.47;;;20.41;49.63
35655;BME280;21773;50.010;19.972;2022-09-12T03:46:46;98560.03;;;20.41;49.42
35655;BME280;21773;50.010;19.972;2022-09-12T03:49:49;98566.63;;;20.40;49.46
35655;BME280;21773;50.010;19.972;2022-09-12T03:52:57;98569.13;;;20.37;49.76
35655;BME280;21773;50.010;19.972;2022-09-12T03:56:04;98559.81;;;20.38;49.75
35655;BME280;21773;50.010;19.972;2022-09-12T03:59:08;98571.06;;;20.36;49.52
35655;BME280;21773;50.010;19.972;2022-09-12T04:02:11;98580.38;;;20.35;49.55
35655;BME280;21773;50.010;19.972;2022-09-12T04:05:15;98581.47;;;20.34;49.51
35655;BME280;21773;50.010;19.972;2022-09-12T04:08:19;98582.88;;;20.31;49.55
35655;BME280;21773;50.010;19.972;2022-09-12T04:11:23;98575.19;;;20.28;49.63
35655;BME280;21773;50.010;19.972;2022-09-12T04:14:26;98585.06;;;20.29;49.48
35655;BME280;21773;50.010;19.972;2022-09-12T04:17:29;98584.22;;;20.29;49.78
35655;BME280;21773;50.010;19.972;2022-09-12T04:20:32;98578.75;;;20.29;49.71
35655;BME280;21773;50.010;19.972;2022-09-12T04:23:37;98586.16;;;20.28;49.70
35655;BME280;21773;50.010;19.972;2022-09-12T04:26:41;98583.97;;;20.30;49.72
35655;BME280;21773;50.010;19.972;2022-09-12T04:29:44;98587.25;;;20.33;49.69
35655;BME280;21773;50.010;19.972;2022-09-12T04:32:47;98580.97;;;20.32;49.58
35655;BME280;21773;50.010;19.972;2022-09-12T04:35:50;98589.69;;;20.34;49.14
35655;BME280;21773;50.010;19.972;2022-09-12T04:38:55;98586.66;;;20.36;49.38
35655;BME280;21773;50.010;19.972;2022-09-12T04:41:58;98592.34;;;20.39;49.54
35655;BME280;21773;50.010;19.972;2022-09-12T04:45:02;98593.94;;;20.45;49.00
35655;BME280;21773;50.010;19.972;2022-09-12T04:48:07;98595.78;;;20.50;48.89
35655;BME280;21773;50.010;19.972;2022-09-12T04:51:12;98604.75;;;20.55;49.21
35655;BME280;21773;50.010;19.972;2022-09-12T04:54:18;98608.81;;;20.58;49.21
35655;BME280;21773;50.010;19.972;2022-09-12T04:57:22;98606.91;;;20.58;49.06
35655;BME280;21773;50.010;19.972;2022-09-12T05:00:26;98606.34;;;20.61;49.26
35655;BME280;21773;50.010;19.972;2022-09-12T05:03:30;98608.69;;;20.68;49.06
35655;BME280;21773;50.010;19.972;2022-09-12T05:06:34;98610.25;;;20.74;48.89
35655;BME280;21773;50.010;19.972;2022-09-12T05:09:40;98614.28;;;20.82;48.77
35655;BME280;21773;50.010;19.972;2022-09-12T05:12:43;98617.47;;;20.89;48.16
35655;BME280;21773;50.010;19.972;2022-09-12T05:18:57;98629.31;;;21.03;47.86
35655;BME280;21773;50.010;19.972;2022-09-12T05:22:01;98625.94;;;21.11;47.56
35655;BME280;21773;50.010;19.972;2022-09-12T05:25:08;98626.38;;;21.18;47.61
35655;BME280;21773;50.010;19.972;2022-09-12T05:28:11;98630.16;;;21.22;46.75
35655;BME280;21773;50.010;19.972;2022-09-12T05:31:17;98636.09;;;21.29;46.81
35655;BME280;21773;50.010;19.972;2022-09-12T05:34:21;98622.47;;;21.24;46.71
35655;BME280;21773;50.010;19.972;2022-09-12T05:37:24;98638.91;;;21.43;46.52
35655;BME280;21773;50.010;19.972;2022-09-12T05:40:29;98638.53;;;21.49;46.37
35655;BME280;21773;50.010;19.972;2022-09-12T05:43:32;98642.78;;;21.55;46.27
35655;BME280;21773;50.010;19.972;2022-09-12T05:46:37;98641.03;;;21.65;46.17
35655;BME280;21773;50.010;19.972;2022-09-12T05:49:41;98642.25;;;21.72;45.21
35655;BME280;21773;50.010;19.972;2022-09-12T05:52:46;98639.13;;;21.79;45.20
35655;BME280;21773;50.010;19.972;2022-09-12T05:56:00;98643.94;;;21.87;44.97
35655;BME280;21773;50.010;19.972;2022-09-12T05:59:06;98621.94;;;21.73;44.98
35655;BME280;21773;50.010;19.972;2022-09-12T06:02:10;98637.75;;;21.95;44.67
35655;BME280;21773;50.010;19.972;2022-09-12T06:05:14;98650.50;;;22.04;44.46
35655;BME280;21773;50.010;19.972;2022-09-12T06:08:17;98656.63;;;22.15;44.46
35655;BME280;21773;50.010;19.972;2022-09-12T06:11:24;98650.53;;;22.18;43.71
35655;BME280;21773;50.010;19.972;2022-09-12T06:14:28;98651.66;;;22.17;43.70
35655;BME280;21773;50.010;19.972;2022-09-12T06:17:31;98638.22;;;22.16;43.70
35655;BME280;21773;50.010;19.972;2022-09-12T06:20:35;98661.00;;;22.30;43.26
35655;BME280;21773;50.010;19.972;2022-09-12T06:23:39;98653.19;;;22.37;43.41
35655;BME280;21773;50.010;19.972;2022-09-12T06:26:44;98653.41;;;22.40;43.04
35655;BME280;21773;50.010;19.972;2022-09-12T06:29:48;98636.28;;;22.30;42.69
35655;BME280;21773;50.010;19.972;2022-09-12T06:32:51;98665.31;;;22.50;43.11
35655;BME280;21773;50.010;19.972;2022-09-12T06:35:54;98661.44;;;22.64;42.84
35655;BME280;21773;50.010;19.972;2022-09-12T06:39:00;98659.22;;;22.80;42.36
35655;BME280;21773;50.010;19.972;2022-09-12T06:42:05;98663.28;;;22.96;41.96
35655;BME280;21773;50.010;19.972;2022-09-12T06:45:09;98663.13;;;23.15;41.39
35655;BME280;21773;50.010;19.972;2022-09-12T06:48:13;98659.72;;;23.31;40.55
35655;BME280;21773;50.010;19.972;2022-09-12T06:51:18;98664.41;;;23.45;40.29
35655;BME280;21773;50.010;19.972;2022-09-12T06:54:21;98670.16;;;23.57;40.56
35655;BME280;21773;50.010;19.972;2022-09-12T06:57:28;98665.22;;;23.67;39.41
35655;BME280;21773;50.010;19.972;2022-09-12T07:00:32;98660.00;;;23.80;39.62
35655;BME280;21773;50.010;19.972;2022-09-12T07:03:36;98667.19;;;23.89;39.29
35655;BME280;21773;50.010;19.972;2022-09-12T07:06:41;98671.34;;;23.87;39.04
35655;BME280;21773;50.010;19.972;2022-09-12T07:09:45;98669.41;;;23.87;38.66
35655;BME280;21773;50.010;19.972;2022-09-12T07:12:52;98667.06;;;23.94;38.75
35655;BME280;21773;50.010;19.972;2022-09-12T07:15:55;98669.03;;;24.02;38.08
35655;BME280;21773;50.010;19.972;2022-09-12T07:19:02;98674.41;;;24.07;37.78
35655;BME280;21773;50.010;19.972;2022-09-12T07:22:05;98683.03;;;24.14;37.85
35655;BME280;21773;50.010;19.972;2022-09-12T07:25:09;98661.53;;;24.16;37.73
35655;BME280;21773;50.010;19.972;2022-09-12T07:28:14;98681.56;;;24.39;37.56
35655;BME280;21773;50.010;19.972;2022-09-12T07:31:18;98681.41;;;24.36;37.51
35655;BME280;21773;50.010;19.972;2022-09-12T07:34:22;98683.47;;;24.30;36.75
35655;BME280;21773;50.010;19.972;2022-09-12T07:37:25;98682.78;;;24.25;36.88
35655;BME280;21773;50.010;19.972;2022-09-12T07:40:31;98691.25;;;24.28;37.01
35655;BME280;21773;50.010;19.972;2022-09-12T07:43:36;98681.19;;;24.24;36.88
35655;BME280;21773;50.010;19.972;2022-09-12T07:46:39;98690.03;;;24.43;36.66
35655;BME280;21773;50.010;19.972;2022-09-12T07:49:43;98689.38;;;24.46;35.39
35655;BME280;21773;50.010;19.972;2022-09-12T07:52:46;98698.19;;;24.56;35.37
35655;BME280;21773;50.010;19.972;2022-09-12T07:55:53;98683.59;;;24.56;33.88
35655;BME280;21773;50.010;19.972;2022-09-12T07:58:57;98698.50;;;24.55;33.90
35655;BME280;21773;50.010;19.972;2022-09-12T08:02:01;98703.22;;;24.63;34.21
35655;BME280;21773;50.010;19.972;2022-09-12T08:05:05;98700.38;;;24.77;34.75
35655;BME280;21773;50.010;19.972;2022-09-12T08:08:08;98693.81;;;24.95;34.21
35655;BME280;21773;50.010;19.972;2022-09-12T08:11:14;98697.63;;;25.16;32.76
35655;BME280;21773;50.010;19.972;2022-09-12T08:14:20;98697.47;;;25.38;32.48
35655;BME280;21773;50.010;19.972;2022-09-12T08:17:23;98691.03;;;25.60;31.69
35655;BME280;21773;50.010;19.972;2022-09-12T08:20:26;98689.41;;;25.85;31.41
35655;BME280;21773;50.010;19.972;2022-09-12T08:23:30;98697.97;;;26.01;30.73
35655;BME280;21773;50.010;19.972;2022-09-12T08:26:34;98706.09;;;26.14;30.90
35655;BME280;21773;50.010;19.972;2022-09-12T08:29:39;98704.78;;;26.29;29.38
35655;BME280;21773;50.010;19.972;2022-09-12T08:32:43;98701.47;;;26.44;29.24
35655;BME280;21773;50.010;19.972;2022-09-12T08:35:46;98701.59;;;26.56;29.53
35655;BME280;21773;50.010;19.972;2022-09-12T08:38:52;98706.00;;;26.57;29.39
35655;BME280;21773;50.010;19.972;2022-09-12T08:42:01;98683.28;;;26.43;30.28
35655;BME280;21773;50.010;19.972;2022-09-12T08:45:15;98702.91;;;26.50;30.52
35655;BME280;21773;50.010;19.972;2022-09-12T08:48:21;98706.00;;;26.57;30.26
35655;BME280;21773;50.010;19.972;2022-09-12T08:51:26;98693.06;;;26.70;30.08
35655;BME280;21773;50.010;19.972;2022-09-12T08:54:32;98695.94;;;26.91;30.09
35655;BME280;21773;50.010;19.972;2022-09-12T08:57:36;98708.34;;;27.14;29.73
35655;BME280;21773;50.010;19.972;2022-09-12T09:00:47;98715.31;;;27.20;28.94
35655;BME280;21773;50.010;19.972;2022-09-12T09:04:28;98707.28;;;27.27;29.73
35655;BME280;21773;50.010;19.972;2022-09-12T09:08:02;98713.97;;;27.47;29.11
35655;BME280;21773;50.010;19.972;2022-09-12T09:14:44;98707.94;;;27.95;27.15
35655;BME280;21773;50.010;19.972;2022-09-12T09:17:56;98711.53;;;28.08;28.24
35655;BME280;21773;50.010;19.972;2022-09-12T09:21:04;98687.03;;;27.97;28.40
35655;BME280;21773;50.010;19.972;2022-09-12T09:24:15;98708.72;;;28.16;27.75
35655;BME280;21773;50.010;19.972;2022-09-12T09:27:25;98704.69;;;28.26;27.42
35655;BME280;21773;50.010;19.972;2022-09-12T09:30:42;98696.06;;;28.39;27.59
35655;BME280;21773;50.010;19.972;2022-09-12T09:33:49;98704.66;;;28.59;26.74
35655;BME280;21773;50.010;19.972;2022-09-12T09:36:59;98688.03;;;28.71;26.53
35655;BME280;21773;50.010;19.972;2022-09-12T09:40:16;98701.00;;;29.03;25.32
35655;BME280;21773;50.010;19.972;2022-09-12T09:43:25;98700.06;;;29.23;25.49
35655;BME280;21773;50.010;19.972;2022-09-12T09:46:29;98683.19;;;29.41;24.77
35655;BME280;21773;50.010;19.972;2022-09-12T09:49:35;98701.09;;;29.43;25.56
35655;BME280;21773;50.010;19.972;2022-09-12T09:52:38;98694.63;;;29.51;25.25
35655;BME280;21773;50.010;19.972;2022-09-12T09:55:43;98698.66;;;29.54;25.37
35655;BME280;21773;50.010;19.972;2022-09-12T09:58:48;98693.44;;;29.52;24.62
35655;BME280;21773;50.010;19.972;2022-09-12T10:01:52;98697.59;;;29.58;24.27
35655;BME280;21773;50.010;19.972;2022-09-12T10:04:59;98686.81;;;29.69;23.52
35655;BME280;21773;50.010;19.972;2022-09-12T10:08:03;98697.06;;;29.81;24.13
35655;BME280;21773;50.010;19.972;2022-09-12T10:11:18;98701.19;;;29.87;23.88
35655;BME280;21773;50.010;19.972;2022-09-12T10:14:28;98697.59;;;29.98;23.59
35655;BME280;21773;50.010;19.972;2022-09-12T10:17:42;98691.38;;;30.17;24.22
35655;BME280;21773;50.010;19.972;2022-09-12T10:20:47;98687.56;;;30.37;23.14
35655;BME280;21773;50.010;19.972;2022-09-12T10:23:58;98681.84;;;30.62;22.76
35655;BME280;21773;50.010;19.972;2022-09-12T10:27:08;98687.69;;;30.72;23.42
35655;BME280;21773;50.010;19.972;2022-09-12T10:30:18;98692.59;;;30.94;22.67
35655;BME280;21773;50.010;19.972;2022-09-12T10:33:23;98689.69;;;31.03;22.01
35655;BME280;21773;50.010;19.972;2022-09-12T10:36:36;98692.41;;;31.19;22.19
35655;BME280;21773;50.010;19.972;2022-09-12T10:39:49;98696.72;;;31.32;21.78
35655;BME280;21773;50.010;19.972;2022-09-12T10:42:55;98701.34;;;31.44;20.89
35655;BME280;21773;50.010;19.972;2022-09-12T10:46:20;98697.63;;;31.55;21.23
35655;BME280;21773;50.010;19.972;2022-09-12T10:49:26;98696.22;;;31.61;20.88
35655;BME280;21773;50.010;19.972;2022-09-12T10:52:31;98690.63;;;31.61;21.09
35655;BME280;21773;50.010;19.972;2022-09-12T10:55:34;98696.41;;;31.72;21.26
35655;BME280;21773;50.010;19.972;2022-09-12T10:58:53;98691.59;;;31.88;21.26
35655;BME280;21773;50.010;19.972;2022-09-12T11:02:13;98677.50;;;32.00;21.05
35655;BME280;21773;50.010;19.972;2022-09-12T11:05:36;98686.97;;;31.96;21.01
35655;BME280;21773;50.010;19.972;2022-09-12T11:08:51;98697.97;;;31.89;21.94
35655;BME280;21773;50.010;19.972;2022-09-12T11:12:02;98691.81;;;31.79;20.73
35655;BME280;21773;50.010;19.972;2022-09-12T11:15:21;98688.44;;;31.90;20.47
35655;BME280;21773;50.010;19.972;2022-09-12T11:18:41;98697.84;;;32.01;21.37
35655;BME280;21773;50.010;19.972;2022-09-12T11:21:59;98692.56;;;32.15;21.00
35655;BME280;21773;50.010;19.972;2022-09-12T11:25:24;98683.75;;;32.13;21.15
35655;BME280;21773;50.010;19.972;2022-09-12T11:28:35;98680.50;;;32.11;20.14
35655;BME280;21773;50.010;19.972;2022-09-12T11:32:04;98687.53;;;32.05;20.74
35655;BME280;21773;50.010;19.972;2022-09-12T11:35:18;98688.50;;;31.93;19.90
35655;BME280;21773;50.010;19.972;2022-09-12T11:38:38;98685.94;;;31.85;20.31
35655;BME280;21773;50.010;19.972;2022-09-12T11:41:50;98692.22;;;31.81;20.96
35655;BME280;21773;50.010;19.972;2022-09-12T11:44:59;98681.88;;;31.82;21.03
35655;BME280;21773;50.010;19.972;2022-09-12T11:48:12;98686.81;;;31.89;21.10
35655;BME280;21773;50.010;19.972;2022-09-12T11:51:19;98684.47;;;31.91;20.90
35655;BME280;21773;50.010;19.972;2022-09-12T11:54:31;98689.16;;;31.87;20.50
35655;BME280;21773;50.010;19.972;2022-09-12T11:57:42;98686.28;;;31.83;20.38
35655;BME280;21773;50.010;19.972;2022-09-12T12:00:49;98696.94;;;31.77;20.74
35655;BME280;21773;50.010;19.972;2022-09-12T12:03:54;98695.53;;;31.68;19.95
35655;BME280;21773;50.010;19.972;2022-09-12T12:07:03;98674.81;;;31.50;20.11
35655;BME280;21773;50.010;19.972;2022-09-12T12:10:24;98685.44;;;31.44;20.53
35655;BME280;21773;50.010;19.972;2022-09-12T12:13:32;98690.13;;;31.40;21.13
35655;BME280;21773;50.010;19.972;2022-09-12T12:16:39;98679.34;;;31.38;21.42
35655;BME280;21773;50.010;19.972;2022-09-12T12:19:44;98685.78;;;31.42;20.66
35655;BME280;21773;50.010;19.972;2022-09-12T12:22:50;98681.25;;;31.34;20.08
35655;BME280;21773;50.010;19.972;2022-09-12T12:25:56;98676.03;;;31.33;20.18
35655;BME280;21773;50.010;19.972;2022-09-12T12:29:02;98670.44;;;31.33;20.53
35655;BME280;21773;50.010;19.972;2022-09-12T12:32:23;98680.72;;;31.29;20.59
35655;BME280;21773;50.010;19.972;2022-09-12T12:35:37;98676.91;;;31.18;20.83
35655;BME280;21773;50.010;19.972;2022-09-12T12:38:40;98667.34;;;31.19;20.90
35655;BME280;21773;50.010;19.972;2022-09-12T12:41:44;98676.09;;;31.17;20.54
35655;BME280;21773;50.010;19.972;2022-09-12T12:44:49;98656.78;;;31.09;20.82
35655;BME280;21773;50.010;19.972;2022-09-12T12:47:54;98675.72;;;31.19;21.10
35655;BME280;21773;50.010;19.972;2022-09-12T12:51:26;98672.63;;;31.24;21.29
35655;BME280;21773;50.010;19.972;2022-09-12T12:54:47;98673.94;;;31.11;20.62
35655;BME280;21773;50.010;19.972;2022-09-12T12:57:53;98674.22;;;31.06;20.79
35655;BME280;21773;50.010;19.972;2022-09-12T13:01:09;98669.38;;;31.03;20.87
35655;BME280;21773;50.010;19.972;2022-09-12T13:04:16;98665.03;;;30.89;20.62
35655;BME280;21773;50.010;19.972;2022-09-12T13:07:26;98662.09;;;30.82;20.84
35655;BME280;21773;50.010;19.972;2022-09-12T13:10:31;98660.47;;;30.81;20.82
35655;BME280;21773;50.010;19.972;2022-09-12T13:13:37;98663.06;;;30.74;21.03
35655;BME280;21773;50.010;19.972;2022-09-12T13:16:53;98659.41;;;30.70;21.48
35655;BME280;21773;50.010;19.972;2022-09-12T13:20:05;98654.56;;;30.67;21.41
35655;BME280;21773;50.010;19.972;2022-09-12T13:23:30;98644.72;;;30.54;21.39
35655;BME280;21773;50.010;19.972;2022-09-12T13:26:39;98656.44;;;30.47;20.88
35655;BME280;21773;50.010;19.972;2022-09-12T13:29:42;98661.19;;;30.47;21.69
35655;BME280;21773;50.010;19.972;2022-09-12T13:32:47;98652.28;;;30.41;21.64
35655;BME280;21773;50.010;19.972;2022-09-12T13:36:14;98651.47;;;30.41;21.69
35655;BME280;21773;50.010;19.972;2022-09-12T13:39:25;98659.19;;;30.32;21.24
35655;BME280;21773;50.010;19.972;2022-09-12T13:42:38;98649.06;;;30.24;21.60
35655;BME280;21773;50.010;19.972;2022-09-12T13:45:44;98644.91;;;30.18;22.00
35655;BME280;21773;50.010;19.972;2022-09-12T13:48:50;98652.25;;;30.10;21.88
35655;BME280;21773;50.010;19.972;2022-09-12T13:51:58;98625.81;;;29.88;21.56
35655;BME280;21773;50.010;19.972;2022-09-12T13:55:06;98639.94;;;29.95;21.89
35655;BME280;21773;50.010;19.972;2022-09-12T13:58:20;98644.56;;;29.91;22.30
35655;BME280;21773;50.010;19.972;2022-09-12T14:01:36;98648.53;;;29.90;21.50
35655;BME280;21773;50.010;19.972;2022-09-12T14:04:46;98619.63;;;29.79;21.41
35655;BME280;21773;50.010;19.972;2022-09-12T14:08:16;98642.19;;;29.78;21.67
35655;BME280;21773;50.010;19.972;2022-09-12T14:11:24;98646.28;;;29.68;21.18
35655;BME280;21773;50.010;19.972;2022-09-12T14:14:32;98641.78;;;29.63;22.41
35655;BME280;21773;50.010;19.972;2022-09-12T14:17:37;98643.56;;;29.56;22.32
35655;BME280;21773;50.010;19.972;2022-09-12T14:20:42;98647.53;;;29.43;21.88
35655;BME280;21773;50.010;19.972;2022-09-12T14:23:47;98650.09;;;29.36;22.54
35655;BME280;21773;50.010;19.972;2022-09-12T14:26:53;98643.94;;;29.30;22.35
35655;BME280;21773;50.010;19.972;2022-09-12T14:30:00;98643.28;;;29.21;21.89
35655;BME280;21773;50.010;19.972;2022-09-12T14:33:19;98641.09;;;29.14;22.38
35655;BME280;21773;50.010;19.972;2022-09-12T14:36:26;98638.88;;;29.08;22.69
35655;BME280;21773;50.010;19.972;2022-09-12T14:39:36;98636.97;;;28.96;22.12
35655;BME280;21773;50.010;19.972;2022-09-12T14:42:41;98634.31;;;28.88;22.54
35655;BME280;21773;50.010;19.972;2022-09-12T14:45:51;98639.72;;;28.84;23.02
35655;BME280;21773;50.010;19.972;2022-09-12T14:48:59;98643.91;;;28.78;22.80
35655;BME280;21773;50.010;19.972;2022-09-12T14:52:07;98645.06;;;28.77;22.90
35655;BME280;21773;50.010;19.972;2022-09-12T14:55:27;98636.84;;;28.68;22.54
35655;BME280;21773;50.010;19.972;2022-09-12T14:58:32;98638.34;;;28.54;22.30
35655;BME280;21773;50.010;19.972;2022-09-12T15:01:36;98652.97;;;28.42;22.82
35655;BME280;21773;50.010;19.972;2022-09-12T15:04:40;98638.75;;;28.31;23.06
35655;BME280;21773;50.010;19.972;2022-09-12T15:07:52;98641.31;;;28.24;23.41
35655;BME280;21773;50.010;19.972;2022-09-12T15:10:56;98636.66;;;28.16;23.85
35655;BME280;21773;50.010;19.972;2022-09-12T15:14:05;98632.53;;;28.01;23.49
35655;BME280;21773;50.010;19.972;2022-09-12T15:17:09;98635.06;;;27.94;23.35
35655;BME280;21773;50.010;19.972;2022-09-12T15:20:13;98632.16;;;27.91;23.74
35655;BME280;21773;50.010;19.972;2022-09-12T15:23:21;98633.34;;;27.90;24.19
35655;BME280;21773;50.010;19.972;2022-09-12T15:26:28;98629.81;;;27.81;23.57
35655;BME280;21773;50.010;19.972;2022-09-12T15:29:31;98636.25;;;27.73;23.82
35655;BME280;21773;50.010;19.972;2022-09-12T15:32:35;98619.44;;;27.57;24.70
35655;BME280;21773;50.010;19.972;2022-09-12T15:35:39;98634.50;;;27.68;24.67
35655;BME280;21773;50.010;19.972;2022-09-12T15:38:44;98643.03;;;27.63;24.60
35655;BME280;21773;50.010;19.972;2022-09-12T15:41:47;98628.13;;;27.47;25.07
35655;BME280;21773;50.010;19.972;2022-09-12T15:44:51;98636.63;;;27.50;25.01
35655;BME280;21773;50.010;19.972;2022-09-12T15:47:55;98643.00;;;27.42;25.11
35655;BME280;21773;50.010;19.972;2022-09-12T15:50:59;98629.72;;;27.36;25.21
35655;BME280;21773;50.010;19.972;2022-09-12T15:54:04;98638.06;;;27.27;25.31
35655;BME280;21773;50.010;19.972;2022-09-12T15:57:08;98640.16;;;27.09;25.33
35655;BME280;21773;50.010;19.972;2022-09-12T16:00:12;98650.28;;;27.05;25.71
35655;BME280;21773;50.010;19.972;2022-09-12T16:03:20;98640.56;;;26.99;25.94
35655;BME280;21773;50.010;19.972;2022-09-12T16:06:25;98640.28;;;26.92;26.05
35655;BME280;21773;50.010;19.972;2022-09-12T16:09:38;98631.03;;;26.80;26.19
35655;BME280;21773;50.010;19.972;2022-09-12T16:12:43;98648.78;;;26.79;26.14
35655;BME280;21773;50.010;19.972;2022-09-12T16:15:46;98644.94;;;26.71;26.33
35655;BME280;21773;50.010;19.972;2022-09-12T16:18:50;98642.53;;;26.61;26.56
35655;BME280;21773;50.010;19.972;2022-09-12T16:21:53;98655.91;;;26.50;26.68
35655;BME280;21773;50.010;19.972;2022-09-12T16:24:57;98646.72;;;26.38;26.50
35655;BME280;21773;50.010;19.972;2022-09-12T16:28:01;98650.66;;;26.28;26.81
35655;BME280;21773;50.010;19.972;2022-09-12T16:31:09;98648.53;;;26.16;26.79
35655;BME280;21773;50.010;19.972;2022-09-12T16:34:12;98651.63;;;26.06;27.29